Terminal Aerodrome Forecast
Issued by NWS Wilmington, OH

Current Version | Previous Version | Text Only | Print | Product List | Glossary Off
Versions: 1 2 3 4 5 6 7 8 9 10 11 12 13 14 15 16 17 18 19 20 21 22 23 24

240
FTUS41 KILN 120529
TAFCVG
TAF
KCVG 120529Z 1206/1312 12003KT P6SM OVC100
     FM121200 17005KT P6SM -SHSN BKN040 OVC100
     FM121600 24010KT P6SM OVC035
     FM122000 28012G22KT P6SM -SHSN OVC022
     FM130000 31018G28KT 3SM -SHSN OVC018
     FM130300 31015G24KT P6SM -SHSN OVC022
     FM130600 31012G20KT 5SM -SHSN BKN022=

USA.gov is the U.S. government's official web portal to all federal, state and local government web resources and services.